sensor_id;sensor_type;location;lat;lon;timestamp;temperature;humidity
46400;DHT22;32104;50.838;4.388;2023-05-10T00:01:51;14.00;99.90
46400;DHT22;32104;50.838;4.388;2023-05-10T00:04:17;14.20;99.90
46400;DHT22;32104;50.838;4.388;2023-05-10T00:06:42;14.30;99.90
46400;DHT22;32104;50.838;4.388;2023-05-10T00:09:08;14.20;99.90
46400;DHT22;32104;50.838;4.388;2023-05-10T00:11:34;14.30;99.90
46400;DHT22;32104;50.838;4.388;2023-05-10T00:14:03;14.20;99.90
46400;DHT22;32104;50.838;4.388;2023-05-10T00:16:29;14.30;99.90
46400;DHT22;32104;50.838;4.388;2023-05-10T00:18:55;14.30;99.90
46400;DHT22;32104;50.838;4.388;2023-05-10T00:21:21;14.20;99.90
46400;DHT22;32104;50.838;4.388;2023-05-10T00:23:49;14.30;99.90
46400;DHT22;32104;50.838;4.388;2023-05-10T00:26:15;14.20;99.90
46400;DHT22;32104;50.838;4.388;2023-05-10T00:28:41;14.30;99.90
46400;DHT22;32104;50.838;4.388;2023-05-10T00:31:07;14.30;99.90
46400;DHT22;32104;50.838;4.388;2023-05-10T00:33:32;14.30;99.90
46400;DHT22;32104;50.838;4.388;2023-05-10T00:35:58;14.30;99.90
46400;DHT22;32104;50.838;4.388;2023-05-10T00:38:23;14.30;99.90
46400;DHT22;32104;50.838;4.388;2023-05-10T00:40:49;14.50;99.90
46400;DHT22;32104;50.838;4.388;2023-05-10T00:43:15;14.50;99.90
46400;DHT22;32104;50.838;4.388;2023-05-10T00:45:40;14.50;99.90
46400;DHT22;32104;50.838;4.388;2023-05-10T00:48:06;14.40;99.90
46400;DHT22;32104;50.838;4.388;2023-05-10T00:50:32;14.50;99.90
46400;DHT22;32104;50.838;4.388;2023-05-10T00:52:58;14.50;99.90
46400;DHT22;32104;50.838;4.388;2023-05-10T00:55:24;14.40;99.90
46400;DHT22;32104;50.838;4.388;2023-05-10T00:57:50;14.30;99.90
46400;DHT22;32104;50.838;4.388;2023-05-10T01:00:17;14.30;99.90
46400;DHT22;32104;50.838;4.388;2023-05-10T01:02:46;14.30;99.90
46400;DHT22;32104;50.838;4.388;2023-05-10T01:05:12;14.30;99.90
46400;DHT22;32104;50.838;4.388;2023-05-10T01:07:38;14.30;99.90
46400;DHT22;32104;50.838;4.388;2023-05-10T01:10:04;14.30;99.90
46400;DHT22;32104;50.838;4.388;2023-05-10T01:12:30;14.30;99.90
46400;DHT22;32104;50.838;4.388;2023-05-10T01:14:55;14.30;99.90
46400;DHT22;32104;50.838;4.388;2023-05-10T01:17:21;14.30;99.90
46400;DHT22;32104;50.838;4.388;2023-05-10T01:19:47;14.40;99.90
46400;DHT22;32104;50.838;4.388;2023-05-10T01:30:50;14.40;99.90
46400;DHT22;32104;50.838;4.388;2023-05-10T01:32:52;14.30;99.90
46400;DHT22;32104;50.838;4.388;2023-05-10T01:35:26;14.30;99.90
46400;DHT22;32104;50.838;4.388;2023-05-10T01:37:57;14.30;99.90
46400;DHT22;32104;50.838;4.388;2023-05-10T01:40:26;14.30;99.90
46400;DHT22;32104;50.838;4.388;2023-05-10T01:42:54;14.40;99.90
46400;DHT22;32104;50.838;4.388;2023-05-10T01:45:47;14.40;99.90
46400;DHT22;32104;50.838;4.388;2023-05-10T01:48:18;14.40;99.90
46400;DHT22;32104;50.838;4.388;2023-05-10T01:51:00;14.30;99.90
46400;DHT22;32104;50.838;4.388;2023-05-10T01:53:32;14.50;99.90
46400;DHT22;32104;50.838;4.388;2023-05-10T01:56:01;14.40;99.90
46400;DHT22;32104;50.838;4.388;2023-05-10T01:58:31;14.50;99.90
46400;DHT22;32104;50.838;4.388;2023-05-10T02:01:00;14.40;99.90
46400;DHT22;32104;50.838;4.388;2023-05-10T02:03:26;14.30;99.90
46400;DHT22;32104;50.838;4.388;2023-05-10T02:05:53;14.30;99.90
46400;DHT22;32104;50.838;4.388;2023-05-10T02:08:21;14.20;99.90
46400;DHT22;32104;50.838;4.388;2023-05-10T02:10:48;14.20;99.90
46400;DHT22;32104;50.838;4.388;2023-05-10T02:13:17;14.20;99.90
46400;DHT22;32104;50.838;4.388;2023-05-10T02:15:43;14.10;99.90
46400;DHT22;32104;50.838;4.388;2023-05-10T02:18:09;14.20;99.90
46400;DHT22;32104;50.838;4.388;2023-05-10T02:20:36;14.20;99.90
46400;DHT22;32104;50.838;4.388;2023-05-10T02:23:02;14.10;99.90
46400;DHT22;32104;50.838;4.388;2023-05-10T02:25:28;14.10;99.90
46400;DHT22;32104;50.838;4.388;2023-05-10T02:27:55;14.10;99.90
46400;DHT22;32104;50.838;4.388;2023-05-10T02:30:21;14.10;99.90
46400;DHT22;32104;50.838;4.388;2023-05-10T02:32:48;14.20;99.90
46400;DHT22;32104;50.838;4.388;2023-05-10T02:35:14;14.10;99.90
46400;DHT22;32104;50.838;4.388;2023-05-10T02:37:42;14.10;99.90
46400;DHT22;32104;50.838;4.388;2023-05-10T02:40:09;14.10;99.90
46400;DHT22;32104;50.838;4.388;2023-05-10T02:42:36;14.10;99.90
46400;DHT22;32104;50.838;4.388;2023-05-10T02:45:05;14.20;99.90
46400;DHT22;32104;50.838;4.388;2023-05-10T02:47:33;14.10;99.90
46400;DHT22;32104;50.838;4.388;2023-05-10T02:49:59;14.20;99.90
46400;DHT22;32104;50.838;4.388;2023-05-10T02:52:26;14.20;99.90
46400;DHT22;32104;50.838;4.388;2023-05-10T02:54:54;14.20;99.90
46400;DHT22;32104;50.838;4.388;2023-05-10T02:57:22;14.20;99.90
46400;DHT22;32104;50.838;4.388;2023-05-10T02:59:53;14.10;99.90
46400;DHT22;32104;50.838;4.388;2023-05-10T03:02:20;14.20;99.90
46400;DHT22;32104;50.838;4.388;2023-05-10T03:04:49;14.10;99.90
46400;DHT22;32104;50.838;4.388;2023-05-10T03:07:14;14.10;99.90
46400;DHT22;32104;50.838;4.388;2023-05-10T03:09:41;14.10;99.90
46400;DHT22;32104;50.838;4.388;2023-05-10T03:12:10;14.00;99.90
46400;DHT22;32104;50.838;4.388;2023-05-10T03:19:46;14.00;99.90
46400;DHT22;32104;50.838;4.388;2023-05-10T03:22:13;14.00;99.90
46400;DHT22;32104;50.838;4.388;2023-05-10T03:24:42;14.00;99.90
46400;DHT22;32104;50.838;4.388;2023-05-10T03:27:08;13.90;99.90
46400;DHT22;32104;50.838;4.388;2023-05-10T03:29:34;13.80;99.90
46400;DHT22;32104;50.838;4.388;2023-05-10T03:32:02;13.80;99.90
46400;DHT22;32104;50.838;4.388;2023-05-10T03:34:29;13.90;99.90
46400;DHT22;32104;50.838;4.388;2023-05-10T03:36:55;13.80;99.90
46400;DHT22;32104;50.838;4.388;2023-05-10T03:39:22;13.70;99.90
46400;DHT22;32104;50.838;4.388;2023-05-10T03:41:56;13.60;99.90
46400;DHT22;32104;50.838;4.388;2023-05-10T03:44:27;13.60;99.90
46400;DHT22;32104;50.838;4.388;2023-05-10T03:46:53;13.70;99.90
46400;DHT22;32104;50.838;4.388;2023-05-10T03:49:18;13.60;99.90
46400;DHT22;32104;50.838;4.388;2023-05-10T03:51:50;13.60;99.90
46400;DHT22;32104;50.838;4.388;2023-05-10T03:54:18;13.60;99.90
46400;DHT22;32104;50.838;4.388;2023-05-10T03:56:44;13.60;99.90
46400;DHT22;32104;50.838;4.388;2023-05-10T03:59:09;13.70;99.90
46400;DHT22;32104;50.838;4.388;2023-05-10T04:01:35;13.80;99.90
46400;DHT22;32104;50.838;4.388;2023-05-10T04:04:00;13.80;99.90
46400;DHT22;32104;50.838;4.388;2023-05-10T04:06:26;13.70;99.90
46400;DHT22;32104;50.838;4.388;2023-05-10T04:08:52;13.70;99.90
46400;DHT22;32104;50.838;4.388;2023-05-10T04:13:57;13.80;99.90
46400;DHT22;32104;50.838;4.388;2023-05-10T04:16:22;13.80;99.90
46400;DHT22;32104;50.838;4.388;2023-05-10T04:18:48;13.90;99.90
46400;DHT22;32104;50.838;4.388;2023-05-10T04:21:13;13.90;99.90
46400;DHT22;32104;50.838;4.388;2023-05-10T04:23:39;14.00;99.90
46400;DHT22;32104;50.838;4.388;2023-05-10T04:26:06;14.00;99.90
46400;DHT22;32104;50.838;4.388;2023-05-10T04:28:32;14.00;99.90
46400;DHT22;32104;50.838;4.388;2023-05-10T04:33:48;14.00;99.90
46400;DHT22;32104;50.838;4.388;2023-05-10T04:36:15;13.90;99.90
46400;DHT22;32104;50.838;4.388;2023-05-10T04:38:50;13.80;99.90
46400;DHT22;32104;50.838;4.388;2023-05-10T04:41:16;13.70;99.90
46400;DHT22;32104;50.838;4.388;2023-05-10T04:43:41;13.60;99.90
46400;DHT22;32104;50.838;4.388;2023-05-10T04:46:07;13.60;99.90
46400;DHT22;32104;50.838;4.388;2023-05-10T04:48:35;13.70;99.90
46400;DHT22;32104;50.838;4.388;2023-05-10T04:51:01;13.70;99.90
46400;DHT22;32104;50.838;4.388;2023-05-10T04:53:29;13.80;99.90
46400;DHT22;32104;50.838;4.388;2023-05-10T04:55:54;13.80;99.90
46400;DHT22;32104;50.838;4.388;2023-05-10T04:58:20;13.80;99.90
46400;DHT22;32104;50.838;4.388;2023-05-10T05:00:46;13.90;99.90
46400;DHT22;32104;50.838;4.388;2023-05-10T05:03:12;13.90;99.90
46400;DHT22;32104;50.838;4.388;2023-05-10T05:05:41;13.90;99.90
46400;DHT22;32104;50.838;4.388;2023-05-10T05:08:07;14.00;99.90
46400;DHT22;32104;50.838;4.388;2023-05-10T05:10:33;13.80;99.90
46400;DHT22;32104;50.838;4.388;2023-05-10T05:13:02;13.90;99.90
46400;DHT22;32104;50.838;4.388;2023-05-10T05:15:28;13.90;99.90
46400;DHT22;32104;50.838;4.388;2023-05-10T05:17:53;13.90;99.90
46400;DHT22;32104;50.838;4.388;2023-05-10T05:20:25;13.90;99.90
46400;DHT22;32104;50.838;4.388;2023-05-10T05:22:54;14.00;99.90
46400;DHT22;32104;50.838;4.388;2023-05-10T05:25:42;14.00;99.90
46400;DHT22;32104;50.838;4.388;2023-05-10T05:28:08;14.00;99.90
46400;DHT22;32104;50.838;4.388;2023-05-10T05:30:35;14.00;99.90
46400;DHT22;32104;50.838;4.388;2023-05-10T05:33:01;14.00;99.90
46400;DHT22;32104;50.838;4.388;2023-05-10T05:35:29;13.90;99.90
46400;DHT22;32104;50.838;4.388;2023-05-10T05:37:56;14.00;99.90
46400;DHT22;32104;50.838;4.388;2023-05-10T05:40:24;13.90;99.90
46400;DHT22;32104;50.838;4.388;2023-05-10T05:42:50;13.90;99.90
46400;DHT22;32104;50.838;4.388;2023-05-10T05:45:16;13.90;99.90
46400;DHT22;32104;50.838;4.388;2023-05-10T05:47:41;14.00;99.90
46400;DHT22;32104;50.838;4.388;2023-05-10T05:50:13;13.90;99.90
46400;DHT22;32104;50.838;4.388;2023-05-10T05:52:40;14.00;99.90
46400;DHT22;32104;50.838;4.388;2023-05-10T05:55:06;14.00;99.90
46400;DHT22;32104;50.838;4.388;2023-05-10T05:57:32;14.00;99.90
46400;DHT22;32104;50.838;4.388;2023-05-10T05:59:58;14.00;99.90
46400;DHT22;32104;50.838;4.388;2023-05-10T06:02:26;14.10;99.90
46400;DHT22;32104;50.838;4.388;2023-05-10T06:04:51;14.10;99.90
46400;DHT22;32104;50.838;4.388;2023-05-10T06:07:21;14.00;99.90
46400;DHT22;32104;50.838;4.388;2023-05-10T06:09:48;14.00;99.90
46400;DHT22;32104;50.838;4.388;2023-05-10T06:12:13;14.00;99.90
46400;DHT22;32104;50.838;4.388;2023-05-10T06:14:45;14.00;99.90
46400;DHT22;32104;50.838;4.388;2023-05-10T06:17:22;14.00;99.90
46400;DHT22;32104;50.838;4.388;2023-05-10T06:19:47;13.80;99.90
46400;DHT22;32104;50.838;4.388;2023-05-10T06:22:13;13.70;99.90
46400;DHT22;32104;50.838;4.388;2023-05-10T06:24:39;13.70;99.90
46400;DHT22;32104;50.838;4.388;2023-05-10T06:27:05;13.60;99.90
46400;DHT22;32104;50.838;4.388;2023-05-10T06:29:32;13.50;99.90
46400;DHT22;32104;50.838;4.388;2023-05-10T06:31:58;13.60;99.90
46400;DHT22;32104;50.838;4.388;2023-05-10T06:34:24;13.70;99.90
46400;DHT22;32104;50.838;4.388;2023-05-10T06:36:49;13.70;99.90
46400;DHT22;32104;50.838;4.388;2023-05-10T06:39:21;13.60;99.90
46400;DHT22;32104;50.838;4.388;2023-05-10T06:41:47;13.70;99.90
46400;DHT22;32104;50.838;4.388;2023-05-10T06:44:13;13.60;99.90
46400;DHT22;32104;50.838;4.388;2023-05-10T06:46:38;13.60;99.90
46400;DHT22;32104;50.838;4.388;2023-05-10T06:49:04;13.60;99.90
46400;DHT22;32104;50.838;4.388;2023-05-10T06:51:29;13.50;99.90
46400;DHT22;32104;50.838;4.388;2023-05-10T06:53:55;13.60;99.90
46400;DHT22;32104;50.838;4.388;2023-05-10T06:56:21;13.70;99.90
46400;DHT22;32104;50.838;4.388;2023-05-10T06:58:47;13.80;99.90
46400;DHT22;32104;50.838;4.388;2023-05-10T07:01:13;13.80;99.90
46400;DHT22;32104;50.838;4.388;2023-05-10T07:03:39;13.70;99.90
46400;DHT22;32104;50.838;4.388;2023-05-10T07:06:06;13.80;99.90
46400;DHT22;32104;50.838;4.388;2023-05-10T07:08:35;14.00;99.90
46400;DHT22;32104;50.838;4.388;2023-05-10T07:11:19;14.00;99.90
46400;DHT22;32104;50.838;4.388;2023-05-10T07:13:48;14.20;99.90
46400;DHT22;32104;50.838;4.388;2023-05-10T07:16:13;14.20;99.90
46400;DHT22;32104;50.838;4.388;2023-05-10T07:18:42;14.10;99.90
46400;DHT22;32104;50.838;4.388;2023-05-10T07:21:12;14.10;99.90
46400;DHT22;32104;50.838;4.388;2023-05-10T07:23:57;14.10;99.90
46400;DHT22;32104;50.838;4.388;2023-05-10T07:26:26;14.10;99.90
46400;DHT22;32104;50.838;4.388;2023-05-10T07:28:51;14.20;99.90
46400;DHT22;32104;50.838;4.388;2023-05-10T07:31:17;14.00;99.90
46400;DHT22;32104;50.838;4.388;2023-05-10T07:33:43;13.80;99.90
46400;DHT22;32104;50.838;4.388;2023-05-10T07:36:09;13.80;99.90
46400;DHT22;32104;50.838;4.388;2023-05-10T07:38:34;13.70;99.90
46400;DHT22;32104;50.838;4.388;2023-05-10T07:41:02;13.70;99.90
46400;DHT22;32104;50.838;4.388;2023-05-10T07:43:31;13.70;99.90
46400;DHT22;32104;50.838;4.388;2023-05-10T07:45:56;13.70;99.90
46400;DHT22;32104;50.838;4.388;2023-05-10T07:48:22;13.70;99.90
46400;DHT22;32104;50.838;4.388;2023-05-10T07:50:48;13.70;99.90
46400;DHT22;32104;50.838;4.388;2023-05-10T07:53:15;13.80;99.90
46400;DHT22;32104;50.838;4.388;2023-05-10T07:55:49;13.70;99.90
46400;DHT22;32104;50.838;4.388;2023-05-10T07:58:15;13.70;99.90
46400;DHT22;32104;50.838;4.388;2023-05-10T08:00:41;13.70;99.90
46400;DHT22;32104;50.838;4.388;2023-05-10T08:03:06;13.80;99.90
46400;DHT22;32104;50.838;4.388;2023-05-10T08:05:32;13.90;99.90
46400;DHT22;32104;50.838;4.388;2023-05-10T08:07:57;14.00;99.90
46400;DHT22;32104;50.838;4.388;2023-05-10T08:10:24;14.00;99.90
46400;DHT22;32104;50.838;4.388;2023-05-10T08:12:51;14.10;99.90
46400;DHT22;32104;50.838;4.388;2023-05-10T08:15:17;14.10;99.90
46400;DHT22;32104;50.838;4.388;2023-05-10T08:17:43;14.20;99.90
46400;DHT22;32104;50.838;4.388;2023-05-10T08:20:08;14.10;99.90
46400;DHT22;32104;50.838;4.388;2023-05-10T08:22:34;14.20;99.90
46400;DHT22;32104;50.838;4.388;2023-05-10T08:25:00;14.30;99.90
46400;DHT22;32104;50.838;4.388;2023-05-10T08:27:25;14.40;99.90
46400;DHT22;32104;50.838;4.388;2023-05-10T08:29:51;14.50;99.90
46400;DHT22;32104;50.838;4.388;2023-05-10T08:32:17;14.50;99.90
46400;DHT22;32104;50.838;4.388;2023-05-10T08:34:42;14.60;99.90
46400;DHT22;32104;50.838;4.388;2023-05-10T08:37:08;14.50;99.90
46400;DHT22;32104;50.838;4.388;2023-05-10T08:39:34;14.50;99.90
46400;DHT22;32104;50.838;4.388;2023-05-10T08:42:02;14.50;99.90
46400;DHT22;32104;50.838;4.388;2023-05-10T08:44:30;14.60;99.90
46400;DHT22;32104;50.838;4.388;2023-05-10T08:46:57;14.60;99.90
46400;DHT22;32104;50.838;4.388;2023-05-10T08:49:23;14.60;99.90
46400;DHT22;32104;50.838;4.388;2023-05-10T08:51:51;14.60;99.90
46400;DHT22;32104;50.838;4.388;2023-05-10T08:54:18;14.70;99.90
46400;DHT22;32104;50.838;4.388;2023-05-10T08:56:44;14.70;99.90
46400;DHT22;32104;50.838;4.388;2023-05-10T08:59:09;14.90;99.90
46400;DHT22;32104;50.838;4.388;2023-05-10T09:01:35;14.90;99.90
46400;DHT22;32104;50.838;4.388;2023-05-10T09:04:02;14.90;99.90
46400;DHT22;32104;50.838;4.388;2023-05-10T09:06:28;15.00;99.90
46400;DHT22;32104;50.838;4.388;2023-05-10T09:08:54;15.00;99.90
46400;DHT22;32104;50.838;4.388;2023-05-10T09:11:20;14.90;99.90
46400;DHT22;32104;50.838;4.388;2023-05-10T09:13:47;14.90;99.90
46400;DHT22;32104;50.838;4.388;2023-05-10T09:16:13;15.00;99.90
46400;DHT22;32104;50.838;4.388;2023-05-10T09:18:38;14.80;99.90
46400;DHT22;32104;50.838;4.388;2023-05-10T09:21:04;14.80;99.90
46400;DHT22;32104;50.838;4.388;2023-05-10T09:23:30;14.70;99.90
46400;DHT22;32104;50.838;4.388;2023-05-10T09:26:04;14.60;99.90
46400;DHT22;32104;50.838;4.388;2023-05-10T09:28:33;14.30;99.90
46400;DHT22;32104;50.838;4.388;2023-05-10T09:30:59;14.30;99.90
46400;DHT22;32104;50.838;4.388;2023-05-10T09:33:25;14.30;99.90
46400;DHT22;32104;50.838;4.388;2023-05-10T09:35:51;14.40;99.90
46400;DHT22;32104;50.838;4.388;2023-05-10T09:38:17;14.20;99.90
46400;DHT22;32104;50.838;4.388;2023-05-10T09:40:43;14.20;99.90
46400;DHT22;32104;50.838;4.388;2023-05-10T09:43:19;14.30;99.90
46400;DHT22;32104;50.838;4.388;2023-05-10T09:45:45;14.30;99.90
46400;DHT22;32104;50.838;4.388;2023-05-10T09:48:13;14.40;99.90
46400;DHT22;32104;50.838;4.388;2023-05-10T09:50:40;14.30;99.90
46400;DHT22;32104;50.838;4.388;2023-05-10T09:53:07;14.30;99.90
46400;DHT22;32104;50.838;4.388;2023-05-10T09:58:01;14.30;99.90
46400;DHT22;32104;50.838;4.388;2023-05-10T10:00:27;14.20;99.90
46400;DHT22;32104;50.838;4.388;2023-05-10T10:02:55;14.30;99.90
46400;DHT22;32104;50.838;4.388;2023-05-10T10:05:20;14.40;99.90
46400;DHT22;32104;50.838;4.388;2023-05-10T10:07:46;14.50;99.90
46400;DHT22;32104;50.838;4.388;2023-05-10T10:10:12;14.60;99.90
46400;DHT22;32104;50.838;4.388;2023-05-10T10:12:41;14.80;99.90
46400;DHT22;32104;50.838;4.388;2023-05-10T10:15:07;14.80;99.90
46400;DHT22;32104;50.838;4.388;2023-05-10T10:17:33;14.70;99.90
46400;DHT22;32104;50.838;4.388;2023-05-10T10:20:02;14.80;99.90
46400;DHT22;32104;50.838;4.388;2023-05-10T10:22:30;15.00;99.90
46400;DHT22;32104;50.838;4.388;2023-05-10T10:24:55;14.90;99.90
46400;DHT22;32104;50.838;4.388;2023-05-10T10:27:23;14.90;99.90
46400;DHT22;32104;50.838;4.388;2023-05-10T10:32:27;14.70;99.90
46400;DHT22;32104;50.838;4.388;2023-05-10T10:34:55;14.70;99.90
46400;DHT22;32104;50.838;4.388;2023-05-10T10:37:21;14.80;99.90
46400;DHT22;32104;50.838;4.388;2023-05-10T10:39:50;14.80;99.90
46400;DHT22;32104;50.838;4.388;2023-05-10T10:42:37;15.00;99.90
46400;DHT22;32104;50.838;4.388;2023-05-10T10:45:13;15.00;99.90
46400;DHT22;32104;50.838;4.388;2023-05-10T10:47:39;15.20;99.90
46400;DHT22;32104;50.838;4.388;2023-05-10T10:52:31;15.30;99.90
46400;DHT22;32104;50.838;4.388;2023-05-10T10:55:10;15.40;99.90
46400;DHT22;32104;50.838;4.388;2023-05-10T10:57:49;15.40;99.90
46400;DHT22;32104;50.838;4.388;2023-05-10T11:02:50;15.30;99.90
46400;DHT22;32104;50.838;4.388;2023-05-10T11:08:08;15.30;99.90
46400;DHT22;32104;50.838;4.388;2023-05-10T11:10:34;15.50;99.90
46400;DHT22;32104;50.838;4.388;2023-05-10T11:13:00;15.50;99.90
46400;DHT22;32104;50.838;4.388;2023-05-10T11:15:36;15.50;99.90
46400;DHT22;32104;50.838;4.388;2023-05-10T11:18:23;15.50;99.90
46400;DHT22;32104;50.838;4.388;2023-05-10T11:20:50;15.50;99.90
46400;DHT22;32104;50.838;4.388;2023-05-10T11:23:16;15.70;99.90
46400;DHT22;32104;50.838;4.388;2023-05-10T11:25:43;15.70;99.90
46400;DHT22;32104;50.838;4.388;2023-05-10T11:28:10;15.90;99.90
46400;DHT22;32104;50.838;4.388;2023-05-10T11:30:38;16.10;99.90
46400;DHT22;32104;50.838;4.388;2023-05-10T11:33:04;16.20;99.90
46400;DHT22;32104;50.838;4.388;2023-05-10T11:35:30;16.30;99.90
46400;DHT22;32104;50.838;4.388;2023-05-10T11:37:55;16.50;99.90
46400;DHT22;32104;50.838;4.388;2023-05-10T11:40:21;16.50;99.90
46400;DHT22;32104;50.838;4.388;2023-05-10T11:42:50;16.80;99.90
46400;DHT22;32104;50.838;4.388;2023-05-10T11:45:15;16.90;99.90
46400;DHT22;32104;50.838;4.388;2023-05-10T11:47:41;17.10;99.90
46400;DHT22;32104;50.838;4.388;2023-05-10T11:50:09;17.40;99.90
46400;DHT22;32104;50.838;4.388;2023-05-10T11:52:37;17.60;99.90
46400;DHT22;32104;50.838;4.388;2023-05-10T11:55:03;17.70;99.90
46400;DHT22;32104;50.838;4.388;2023-05-10T11:57:29;17.80;99.90
46400;DHT22;32104;50.838;4.388;2023-05-10T11:59:56;17.80;99.90
46400;DHT22;32104;50.838;4.388;2023-05-10T12:02:22;17.80;99.90
46400;DHT22;32104;50.838;4.388;2023-05-10T12:04:48;17.60;99.90
46400;DHT22;32104;50.838;4.388;2023-05-10T12:07:14;17.30;99.90
46400;DHT22;32104;50.838;4.388;2023-05-10T12:09:44;17.30;99.90
46400;DHT22;32104;50.838;4.388;2023-05-10T12:12:10;17.30;99.90
46400;DHT22;32104;50.838;4.388;2023-05-10T12:14:36;17.30;99.90
46400;DHT22;32104;50.838;4.388;2023-05-10T12:17:02;17.40;99.90
46400;DHT22;32104;50.838;4.388;2023-05-10T12:19:39;17.60;99.90
46400;DHT22;32104;50.838;4.388;2023-05-10T12:22:11;17.60;99.90
46400;DHT22;32104;50.838;4.388;2023-05-10T12:24:37;17.70;99.90
46400;DHT22;32104;50.838;4.388;2023-05-10T12:27:10;17.70;99.90
46400;DHT22;32104;50.838;4.388;2023-05-10T12:29:41;17.70;99.90
46400;DHT22;32104;50.838;4.388;2023-05-10T12:32:09;17.70;99.90
46400;DHT22;32104;50.838;4.388;2023-05-10T12:34:37;17.90;99.90
46400;DHT22;32104;50.838;4.388;2023-05-10T12:37:03;18.10;99.90
46400;DHT22;32104;50.838;4.388;2023-05-10T12:39:39;18.30;99.90
46400;DHT22;32104;50.838;4.388;2023-05-10T12:42:06;18.30;99.90
46400;DHT22;32104;50.838;4.388;2023-05-10T12:44:32;18.40;99.90
46400;DHT22;32104;50.838;4.388;2023-05-10T12:46:57;18.50;99.90
46400;DHT22;32104;50.838;4.388;2023-05-10T12:49:23;18.40;99.90
46400;DHT22;32104;50.838;4.388;2023-05-10T12:51:51;18.40;99.90
46400;DHT22;32104;50.838;4.388;2023-05-10T12:54:17;18.60;99.90
46400;DHT22;32104;50.838;4.388;2023-05-10T12:56:42;18.60;99.90
46400;DHT22;32104;50.838;4.388;2023-05-10T12:59:08;18.70;99.90
46400;DHT22;32104;50.838;4.388;2023-05-10T13:01:34;18.70;99.90
46400;DHT22;32104;50.838;4.388;2023-05-10T13:03:59;18.70;99.90
46400;DHT22;32104;50.838;4.388;2023-05-10T13:06:31;18.70;99.90
46400;DHT22;32104;50.838;4.388;2023-05-10T13:08:57;18.70;99.90
46400;DHT22;32104;50.838;4.388;2023-05-10T13:11:23;18.80;99.90
46400;DHT22;32104;50.838;4.388;2023-05-10T13:13:48;18.70;99.90
46400;DHT22;32104;50.838;4.388;2023-05-10T13:16:14;18.80;99.90
46400;DHT22;32104;50.838;4.388;2023-05-10T13:18:41;19.00;99.90
46400;DHT22;32104;50.838;4.388;2023-05-10T13:21:08;19.00;99.90
46400;DHT22;32104;50.838;4.388;2023-05-10T13:23:34;19.10;99.90
46400;DHT22;32104;50.838;4.388;2023-05-10T13:25:59;19.10;99.90
46400;DHT22;32104;50.838;4.388;2023-05-10T13:28:25;19.00;99.90
46400;DHT22;32104;50.838;4.388;2023-05-10T13:30:51;19.00;99.90
46400;DHT22;32104;50.838;4.388;2023-05-10T13:33:17;18.80;99.90
46400;DHT22;32104;50.838;4.388;2023-05-10T13:35:43;18.90;99.90
46400;DHT22;32104;50.838;4.388;2023-05-10T13:38:09;18.70;99.90
46400;DHT22;32104;50.838;4.388;2023-05-10T13:40:34;18.60;99.90
46400;DHT22;32104;50.838;4.388;2023-05-10T13:43:04;18.60;99.90
46400;DHT22;32104;50.838;4.388;2023-05-10T13:45:30;18.70;99.90
46400;DHT22;32104;50.838;4.388;2023-05-10T13:47:56;18.80;99.90
46400;DHT22;32104;50.838;4.388;2023-05-10T13:50:22;18.70;99.90
46400;DHT22;32104;50.838;4.388;2023-05-10T13:52:48;18.70;99.90
46400;DHT22;32104;50.838;4.388;2023-05-10T13:55:13;18.90;99.90
46400;DHT22;32104;50.838;4.388;2023-05-10T13:57:39;18.80;99.90
46400;DHT22;32104;50.838;4.388;2023-05-10T14:00:05;18.80;99.90
46400;DHT22;32104;50.838;4.388;2023-05-10T14:02:32;18.70;99.90
46400;DHT22;32104;50.838;4.388;2023-05-10T14:04:57;18.60;99.90
46400;DHT22;32104;50.838;4.388;2023-05-10T14:07:23;18.60;99.90
46400;DHT22;32104;50.838;4.388;2023-05-10T14:09:48;18.50;99.90
46400;DHT22;32104;50.838;4.388;2023-05-10T14:12:17;18.20;99.90
46400;DHT22;32104;50.838;4.388;2023-05-10T14:14:43;18.10;99.90
46400;DHT22;32104;50.838;4.388;2023-05-10T14:17:10;18.10;99.90
46400;DHT22;32104;50.838;4.388;2023-05-10T14:19:35;18.10;99.90
46400;DHT22;32104;50.838;4.388;2023-05-10T14:22:02;18.10;99.90
46400;DHT22;32104;50.838;4.388;2023-05-10T14:24:28;18.10;99.90
46400;DHT22;32104;50.838;4.388;2023-05-10T14:26:54;18.10;99.90
46400;DHT22;32104;50.838;4.388;2023-05-10T14:29:20;18.10;99.90
46400;DHT22;32104;50.838;4.388;2023-05-10T14:31:46;18.10;99.90
46400;DHT22;32104;50.838;4.388;2023-05-10T14:34:11;18.20;99.90
46400;DHT22;32104;50.838;4.388;2023-05-10T14:36:37;18.30;99.90
46400;DHT22;32104;50.838;4.388;2023-05-10T14:39:03;18.50;99.90
46400;DHT22;32104;50.838;4.388;2023-05-10T14:41:29;18.60;99.90
46400;DHT22;32104;50.838;4.388;2023-05-10T14:43:55;18.60;99.90
46400;DHT22;32104;50.838;4.388;2023-05-10T14:46:21;18.60;99.90
46400;DHT22;32104;50.838;4.388;2023-05-10T14:48:47;18.60;99.90
46400;DHT22;32104;50.838;4.388;2023-05-10T14:51:12;18.50;99.90
46400;DHT22;32104;50.838;4.388;2023-05-10T14:53:38;18.30;99.90
46400;DHT22;32104;50.838;4.388;2023-05-10T14:56:04;18.10;99.90
46400;DHT22;32104;50.838;4.388;2023-05-10T14:58:30;18.00;99.90
46400;DHT22;32104;50.838;4.388;2023-05-10T15:00:59;17.70;99.90
46400;DHT22;32104;50.838;4.388;2023-05-10T15:03:25;17.70;99.90
46400;DHT22;32104;50.838;4.388;2023-05-10T15:05:50;17.50;99.90
46400;DHT22;32104;50.838;4.388;2023-05-10T15:08:17;17.30;99.90
46400;DHT22;32104;50.838;4.388;2023-05-10T15:10:46;17.20;99.90
46400;DHT22;32104;50.838;4.388;2023-05-10T15:13:12;17.10;99.90
46400;DHT22;32104;50.838;4.388;2023-05-10T15:15:37;17.00;99.90
46400;DHT22;32104;50.838;4.388;2023-05-10T15:18:03;16.90;99.90
46400;DHT22;32104;50.838;4.388;2023-05-10T15:20:30;16.60;99.90
46400;DHT22;32104;50.838;4.388;2023-05-10T15:22:56;16.50;99.90
46400;DHT22;32104;50.838;4.388;2023-05-10T15:25:22;16.40;99.90
46400;DHT22;32104;50.838;4.388;2023-05-10T15:27:49;16.30;99.90
46400;DHT22;32104;50.838;4.388;2023-05-10T15:30:14;16.30;99.90
46400;DHT22;32104;50.838;4.388;2023-05-10T15:32:40;16.30;99.90
46400;DHT22;32104;50.838;4.388;2023-05-10T15:35:07;16.20;99.90
46400;DHT22;32104;50.838;4.388;2023-05-10T15:37:32;16.20;99.90
46400;DHT22;32104;50.838;4.388;2023-05-10T15:39:58;16.40;99.90
46400;DHT22;32104;50.838;4.388;2023-05-10T15:42:31;16.50;99.90
46400;DHT22;32104;50.838;4.388;2023-05-10T15:44:57;16.50;99.90
46400;DHT22;32104;50.838;4.388;2023-05-10T15:47:23;16.70;99.90
46400;DHT22;32104;50.838;4.388;2023-05-10T15:49:48;16.80;99.90
46400;DHT22;32104;50.838;4.388;2023-05-10T15:52:14;16.90;99.90
46400;DHT22;32104;50.838;4.388;2023-05-10T15:54:40;17.10;99.90
46400;DHT22;32104;50.838;4.388;2023-05-10T15:57:05;17.20;99.90
46400;DHT22;32104;50.838;4.388;2023-05-10T15:59:32;17.10;99.90
46400;DHT22;32104;50.838;4.388;2023-05-10T16:01:58;17.20;99.90